Sullivan, Missouri
Current Conditions -  °F | °C
As of 10:15 AM on Friday 21 Nov 2014 (Local Time) from KFYG Reporting Station
Clear Clear  
Wind Chill: 26°   Ceiling: Unl
Heat Index: 34°   Visibility: 10mi
Dew Point: 16°   Wind: 10mph
Humidity: 48%   Direction: 130°SE
Pressure: 30.39"   Gusts: NA
Location:  38.21°N, 91.16°W
Report Text: KFYG 211615Z AUTO 13009KT 10SM CLR 01/M09 A3039 RMK AO2
Loading
Personal Weather Stations






























Interactive Weather Map New forecast layout! Learn more

10-Day Weather Forecast

Advertisements
Track Severe Weather on mobile